Time;durP1;ratioP1;P1;durP2;ratioP2;P2;SDS_P1;SDS_P2;PMS_P1;PMS_P2;Temp;Humidity;BMP_temperature;BMP_pressure;BME280_temperature;BME280_humidity;BME280_pressure;Samples;Min_cycle;Max_cycle;Signal;HPM_P1;HPM_P2
2023/03/14 00:01:45;;;;;;;0.53;0.53;;;11.80;99.90;;;11.97;nan;98803.09;4967557;28;21058;-66
2023/03/14 00:04:12;;;;;;;0.60;0.60;;;11.90;99.90;;;11.98;nan;98817.00;4973675;28;20635;-67
2023/03/14 00:06:39;;;;;;;0.77;0.53;;;11.90;99.90;;;12.00;nan;98820.25;4974594;28;20635;-67
2023/03/14 00:09:06;;;;;;;1.27;0.50;;;11.90;99.90;;;11.96;nan;98819.78;4973746;28;21224;-65
2023/03/14 00:11:33;;;;;;;2.50;0.87;;;11.90;99.90;;;11.93;nan;98800.97;4955888;28;20632;-66
2023/03/14 00:14:00;;;;;;;0.50;0.50;;;11.80;99.90;;;11.94;nan;98802.63;4954872;28;20624;-67
2023/03/14 00:16:27;;;;;;;0.53;0.53;;;11.80;99.90;;;11.93;nan;98804.41;4966660;28;21013;-64
2023/03/14 00:18:54;;;;;;;0.60;0.60;;;11.80;99.90;;;11.99;nan;98797.75;4962931;28;20689;-67
2023/03/14 00:21:21;;;;;;;0.30;0.30;;;11.90;99.90;;;11.92;nan;98800.19;4972797;28;20631;-66
2023/03/14 00:23:48;;;;;;;0.40;0.40;;;11.80;99.90;;;11.95;nan;98805.06;4973908;28;20607;-64
2023/03/14 00:26:18;;;;;;;0.53;0.53;;;11.80;99.90;;;11.90;nan;98799.53;4973119;28;20625;-66
2023/03/14 00:28:47;;;;;;;0.50;0.50;;;11.80;99.90;;;11.92;nan;98810.63;4968624;28;21074;-66
2023/03/14 00:31:15;;;;;;;0.70;0.70;;;11.80;99.90;;;11.94;nan;98807.84;4973955;28;20665;-64
2023/03/14 00:33:44;;;;;;;0.80;0.80;;;11.80;99.90;;;11.93;nan;98799.19;4956428;28;20632;-66
2023/03/14 00:36:15;;;;;;;0.47;0.47;;;11.80;99.90;;;11.88;nan;98808.50;4970297;28;20642;-64
2023/03/14 00:38:44;;;;;;;0.40;0.40;;;11.80;99.90;;;11.87;nan;98799.03;4983603;28;20741;-66
2023/03/14 00:41:15;;;;;;;0.70;0.50;;;11.70;99.90;;;11.85;nan;98793.97;4973437;28;20619;-64
2023/03/14 00:43:43;;;;;;;0.30;0.30;;;11.70;99.90;;;11.79;nan;98791.19;4960171;28;20638;-66
2023/03/14 00:46:10;;;;;;;1.60;0.40;;;11.70;99.90;;;11.73;nan;98782.22;4970677;28;21228;-65
2023/03/14 00:48:37;;;;;;;0.40;0.40;;;11.60;99.90;;;11.72;nan;98783.16;4964376;28;20664;-64
2023/03/14 00:51:07;;;;;;;0.60;0.50;;;11.60;99.90;;;11.71;nan;98767.66;4968585;28;20689;-66
2023/03/14 00:53:38;;;;;;;0.40;0.40;;;11.50;99.90;;;11.64;nan;98772.69;4973564;28;20639;-66
2023/03/14 00:56:09;;;;;;;0.60;0.60;;;11.50;99.90;;;11.63;nan;98776.28;4973140;28;20627;-67
2023/03/14 00:58:36;;;;;;;0.53;0.47;;;11.50;99.90;;;11.65;nan;98782.16;4994076;23;20685;-67
2023/03/14 01:01:14;;;;;;;0.30;0.30;;;11.50;99.90;;;11.66;nan;98791.63;4993715;28;21172;-66
2023/03/14 01:03:41;;;;;;;3.40;0.60;;;11.50;99.90;;;11.66;nan;98799.47;4993169;28;20626;-68
2023/03/14 01:06:18;;;;;;;0.50;0.40;;;11.50;99.90;;;11.62;nan;98798.16;4991231;28;20642;-70
2023/03/14 01:08:46;;;;;;;0.30;0.30;;;11.50;99.90;;;11.68;nan;98805.38;4991970;28;20666;-71
2023/03/14 01:11:20;;;;;;;0.50;0.50;;;11.50;99.90;;;11.73;nan;98808.34;4977208;28;20643;-67
2023/03/14 01:13:47;;;;;;;0.50;0.50;;;11.60;99.90;;;11.70;nan;98779.91;4973467;28;21207;-68
2023/03/14 01:16:16;;;;;;;0.37;0.37;;;11.60;99.90;;;11.66;nan;98783.78;4971889;28;20693;-67
2023/03/14 01:18:44;;;;;;;0.50;0.50;;;11.60;99.90;;;11.64;nan;98781.34;5004256;28;20677;-67
2023/03/14 01:21:20;;;;;;;0.53;0.53;;;11.50;99.90;;;11.65;nan;98797.81;4990962;28;20660;-67
2023/03/14 01:23:49;;;;;;;0.30;0.30;;;11.50;99.90;;;11.69;nan;98780.91;4991615;28;20629;-67
2023/03/14 01:26:19;;;;;;;0.40;0.40;;;11.50;99.90;;;11.67;nan;98788.06;4991760;28;20634;-69
2023/03/14 01:28:48;;;;;;;0.30;0.30;;;11.50;99.90;;;11.67;nan;98775.81;4992199;28;20739;-67
2023/03/14 01:31:16;;;;;;;0.90;0.47;;;11.50;99.90;;;11.63;nan;98771.03;5008268;28;20618;-68
2023/03/14 01:33:43;;;;;;;2.10;0.50;;;11.50;99.90;;;11.65;nan;98771.69;4991597;28;20646;-67
2023/03/14 01:36:11;;;;;;;0.40;0.40;;;11.50;99.90;;;11.63;nan;98763.22;4993470;28;21171;-66
2023/03/14 01:38:39;;;;;;;0.30;0.30;;;11.50;99.90;;;11.63;nan;98760.59;4987419;28;20675;-67
2023/03/14 01:41:12;;;;;;;0.40;0.40;;;11.50;99.90;;;11.68;nan;98750.53;4972995;28;20689;-67
2023/03/14 01:43:39;;;;;;;0.40;0.40;;;11.50;99.90;;;11.66;nan;98747.22;5003178;28;20652;-67
2023/03/14 01:46:06;;;;;;;0.60;0.60;;;11.50;99.90;;;11.67;nan;98754.09;4987509;28;20650;-67
2023/03/14 01:48:42;;;;;;;0.40;0.33;;;11.50;99.90;;;11.65;nan;98728.13;4989514;28;20666;-66
2023/03/14 01:51:19;;;;;;;0.50;0.50;;;11.50;99.90;;;11.65;nan;98727.28;4992146;28;20629;-68
2023/03/14 01:53:48;;;;;;;0.60;0.60;;;11.50;99.90;;;11.67;nan;98718.34;4980663;28;20627;-67
2023/03/14 01:56:17;;;;;;;0.67;0.43;;;11.50;99.90;;;11.59;nan;98714.88;4987821;28;20624;-67
2023/03/14 01:58:49;;;;;;;0.67;0.60;;;11.50;99.90;;;11.62;nan;98725.03;5005975;28;20732;-66
2023/03/14 02:01:20;;;;;;;0.73;0.73;;;11.50;99.90;;;11.60;nan;98713.94;4992299;28;21222;-67
2023/03/14 02:04:01;;;;;;;1.00;0.90;;;11.50;99.90;;;11.60;nan;98711.31;4988934;28;20634;-68
2023/03/14 02:06:47;;;;;;;1.53;0.70;;;11.50;99.90;;;11.56;nan;98712.63;4973120;28;20980;-68
2023/03/14 02:09:14;;;;;;;2.50;0.83;;;11.50;99.90;;;11.56;nan;98704.78;4971782;28;20667;-66
2023/03/14 02:11:42;;;;;;;1.13;0.70;;;11.40;99.90;;;11.58;nan;98706.22;4971444;28;20657;-69
2023/03/14 02:14:22;;;;;;;1.13;0.90;;;11.40;99.90;;;11.58;nan;98698.38;4974093;28;20631;-67
2023/03/14 02:16:49;;;;;;;1.37;0.60;;;11.50;99.90;;;11.60;nan;98691.25;4990716;28;20642;-70
2023/03/14 02:19:47;;;;;;;0.60;0.60;;;11.50;99.90;;;11.71;nan;98697.13;4988236;28;20677;-67
2023/03/14 02:22:16;;;;;;;1.20;1.10;;;11.60;99.90;;;11.76;nan;98687.81;4982872;28;21184;-66
2023/03/14 02:25:38;;;;;;;1.70;0.70;;;11.70;99.90;;;11.76;nan;98687.81;4985677;28;20690;-68
2023/03/14 02:28:05;;;;;;;0.60;0.60;;;11.70;99.90;;;11.76;nan;98700.88;4990171;28;20708;-66
2023/03/14 02:30:34;;;;;;;0.83;0.67;;;11.70;99.90;;;11.76;nan;98693.03;5006578;28;21204;-70
2023/03/14 02:33:07;;;;;;;0.83;0.50;;;11.60;99.90;;;11.76;nan;98693.03;5005451;28;20656;-70
2023/03/14 02:35:54;;;;;;;0.40;0.40;;;11.70;99.90;;;11.73;nan;98679.50;4990772;28;20639;-66
2023/03/14 02:38:31;;;;;;;0.33;0.33;;;11.60;99.90;;;11.63;nan;98670.00;4990588;28;20717;-68
2023/03/14 02:40:58;;;;;;;0.70;0.70;;;11.60;99.90;;;11.65;nan;98656.75;4982379;28;20635;-66
2023/03/14 02:43:25;;;;;;;0.60;0.60;;;11.60;99.90;;;11.64;nan;98658.59;5002401;28;20696;-66
2023/03/14 02:45:52;;;;;;;0.57;0.40;;;11.50;99.90;;;11.63;nan;98664.78;4986607;28;20623;-66
2023/03/14 02:48:28;;;;;;;0.50;0.50;;;11.60;99.90;;;11.61;nan;98661.50;4991038;28;20670;-66
2023/03/14 02:50:59;;;;;;;1.03;0.80;;;11.50;99.90;;;11.56;nan;98647.31;4988863;28;20673;-67
2023/03/14 02:53:33;;;;;;;0.70;0.70;;;11.50;99.90;;;11.53;nan;98658.09;4993211;28;21243;-68
2023/03/14 02:56:00;;;;;;;0.93;0.77;;;11.40;99.90;;;11.56;nan;98660.38;4987436;28;21069;-69
2023/03/14 02:58:28;;;;;;;0.53;0.47;;;11.40;99.90;;;11.56;nan;98660.38;4988666;28;21292;-68
2023/03/14 03:00:55;;;;;;;0.93;0.60;;;11.50;99.90;;;11.57;nan;98648.94;4988768;28;20626;-67
2023/03/14 03:03:22;;;;;;;0.50;0.50;;;11.50;99.90;;;11.54;nan;98646.69;4991011;28;20622;-68
2023/03/14 03:05:51;;;;;;;1.47;0.70;;;11.40;99.90;;;11.57;nan;98643.72;4987792;28;20641;-68
2023/03/14 03:08:21;;;;;;;9.00;0.77;;;11.50;99.90;;;11.56;nan;98640.28;4987583;28;20654;-67
2023/03/14 03:10:48;;;;;;;0.80;0.80;;;11.50;99.90;;;11.59;nan;98636.53;4990411;28;20630;-67
2023/03/14 03:13:15;;;;;;;1.33;0.80;;;11.50;99.90;;;11.59;nan;98626.91;4990322;28;20638;-67
2023/03/14 03:15:43;;;;;;;2.07;1.17;;;11.50;99.90;;;11.61;nan;98621.50;4991058;28;20630;-69
2023/03/14 03:18:11;;;;;;;1.27;1.17;;;11.50;99.90;;;11.61;nan;98624.94;4989866;28;20713;-66
2023/03/14 03:20:38;;;;;;;0.93;0.83;;;11.50;99.90;;;11.62;nan;98610.09;4989580;28;20705;-69
2023/03/14 03:23:05;;;;;;;1.83;1.00;;;11.50;99.90;;;11.64;nan;98616.78;4990509;28;20638;-68
2023/03/14 03:25:32;;;;;;;1.33;0.83;;;11.50;99.90;;;11.68;nan;98601.63;4990446;28;20675;-68
2023/03/14 03:27:59;;;;;;;0.83;0.50;;;11.50;99.90;;;11.66;nan;98582.66;4986070;28;20636;-67
2023/03/14 03:30:26;;;;;;;1.70;1.37;;;11.60;99.90;;;11.71;nan;98577.78;4971193;28;20996;-69
2023/03/14 03:32:53;;;;;;;0.63;0.63;;;11.60;99.90;;;11.75;nan;98578.28;4984845;28;20697;-68
2023/03/14 03:35:20;;;;;;;1.03;0.67;;;11.60;99.90;;;11.75;nan;98584.31;4993636;28;20618;-68
2023/03/14 03:37:47;;;;;;;0.70;0.70;;;11.60;99.90;;;11.77;nan;98587.56;4993497;28;20646;-69
2023/03/14 03:40:14;;;;;;;2.37;0.50;;;11.70;99.90;;;11.74;nan;98582.66;4994406;28;20654;-67
2023/03/14 03:42:41;;;;;;;0.30;0.30;;;11.60;99.90;;;11.78;nan;98578.75;4990207;28;20634;-71
2023/03/14 03:45:08;;;;;;;0.50;0.33;;;11.70;99.90;;;11.72;nan;98563.75;4994323;28;20617;-65
2023/03/14 03:47:35;;;;;;;0.30;0.30;;;11.60;99.90;;;11.66;nan;98567.00;5005784;28;20630;-69
2023/03/14 03:50:03;;;;;;;0.50;0.50;;;11.50;99.90;;;11.67;nan;98571.25;4994825;28;20654;-65
2023/03/14 03:52:30;;;;;;;0.50;0.50;;;11.50;99.90;;;11.58;nan;98578.25;4991392;28;20683;-66
2023/03/14 03:54:57;;;;;;;0.50;0.40;;;11.50;99.90;;;11.55;nan;98573.38;4975537;28;20626;-69
2023/03/14 03:57:24;;;;;;;0.47;0.40;;;11.40;99.90;;;11.53;nan;98574.53;4973689;28;21251;-65
2023/03/14 03:59:50;;;;;;;0.30;0.30;;;11.40;99.90;;;11.47;nan;98570.78;4994914;28;20669;-67
2023/03/14 04:02:17;;;;;;;0.50;0.30;;;11.30;99.90;;;11.41;nan;98571.47;4993757;28;20622;-70
2023/03/14 04:04:44;;;;;;;0.43;0.40;;;11.30;99.90;;;11.35;nan;98574.69;4982655;28;20633;-65
2023/03/14 04:07:13;;;;;;;0.90;0.47;;;11.20;99.90;;;11.33;nan;98583.69;4973996;28;20845;-68
2023/03/14 04:09:40;;;;;;;0.50;0.40;;;11.20;99.90;;;11.30;nan;98586.63;4982899;28;20716;-66
2023/03/14 04:12:07;;;;;;;0.80;0.60;;;11.20;99.90;;;11.22;nan;98586.63;4994191;28;20622;-68
2023/03/14 04:14:34;;;;;;;0.43;0.43;;;11.10;99.90;;;11.21;nan;98579.78;4993026;28;20637;-69
2023/03/14 04:17:01;;;;;;;0.50;0.50;;;11.10;99.90;;;11.25;nan;98583.69;4993163;28;20621;-67
2023/03/14 04:19:28;;;;;;;0.30;0.30;;;11.10;99.90;;;11.20;nan;98581.56;4993214;28;21239;-67
2023/03/14 04:21:55;;;;;;;0.43;0.43;;;11.10;99.90;;;11.16;nan;98572.41;4994068;28;20783;-67
2023/03/14 04:24:22;;;;;;;0.40;0.40;;;11.00;99.90;;;11.11;nan;98566.06;4993406;28;20634;-70
2023/03/14 04:26:49;;;;;;;1.90;0.53;;;11.00;99.90;;;11.09;nan;98571.47;4993995;28;21197;-67
2023/03/14 04:29:16;;;;;;;0.60;0.60;;;11.00;99.90;;;11.07;nan;98563.00;5007737;28;20768;-67
2023/03/14 04:31:43;;;;;;;0.87;0.47;;;11.00;99.90;;;11.06;nan;98561.34;4994134;28;20992;-67
2023/03/14 04:34:09;;;;;;;0.30;0.30;;;11.00;99.90;;;10.99;nan;98554.34;4992535;28;20623;-67
2023/03/14 04:36:36;;;;;;;0.40;0.40;;;10.90;99.90;;;10.95;nan;98564.25;4993166;28;20689;-68
2023/03/14 04:39:05;;;;;;;0.50;0.50;;;10.80;99.90;;;10.94;nan;98558.22;4992660;28;20696;-67
2023/03/14 04:41:32;;;;;;;0.73;0.60;;;10.80;99.90;;;10.94;nan;98558.22;4975084;28;20599;-67
2023/03/14 04:43:59;;;;;;;1.00;0.60;;;10.80;99.90;;;10.98;nan;98570.97;4990846;28;20638;-67
2023/03/14 04:46:26;;;;;;;5.70;0.40;;;10.80;99.90;;;11.00;nan;98562.00;4992233;28;20630;-69
2023/03/14 04:48:55;;;;;;;0.80;0.70;;;10.90;99.90;;;11.03;nan;98555.66;4985416;28;21321;-67
2023/03/14 04:51:26;;;;;;;0.50;0.50;;;10.90;99.90;;;11.07;nan;98551.72;4985046;28;21204;-69
2023/03/14 04:53:54;;;;;;;0.40;0.40;;;10.90;99.90;;;11.12;nan;98538.97;4990223;28;21343;-67
2023/03/14 04:56:21;;;;;;;0.40;0.40;;;11.00;99.90;;;11.14;nan;98529.22;4991279;28;20624;-69
2023/03/14 04:58:48;;;;;;;0.27;0.27;;;11.00;99.90;;;11.09;nan;98534.13;4984169;28;20681;-67
2023/03/14 05:01:15;;;;;;;0.60;0.60;;;11.00;99.90;;;11.13;nan;98536.22;4991716;28;20696;-69
2023/03/14 05:03:42;;;;;;;0.40;0.40;;;11.00;99.90;;;11.07;nan;98536.06;4980162;28;20635;-67
2023/03/14 05:06:09;;;;;;;0.60;0.60;;;11.00;99.90;;;11.11;nan;98538.19;4993388;28;20656;-67
2023/03/14 05:08:36;;;;;;;0.30;0.30;;;11.00;99.90;;;11.12;nan;98524.16;4984095;28;20670;-67
2023/03/14 05:11:03;;;;;;;0.70;0.50;;;11.00;99.90;;;11.12;nan;98518.09;4993505;28;20630;-67
2023/03/14 05:13:31;;;;;;;0.40;0.40;;;11.00;99.90;;;11.16;nan;98529.88;4990993;28;20736;-67
2023/03/14 05:16:10;;;;;;;0.47;0.47;;;11.00;99.90;;;11.15;nan;98530.84;4986187;28;20645;-67
2023/03/14 05:18:37;;;;;;;0.70;0.70;;;11.00;99.90;;;11.16;nan;98528.06;4991482;28;20670;-66
2023/03/14 05:21:05;;;;;;;0.40;0.40;;;11.00;99.90;;;11.14;nan;98526.63;4992006;28;20627;-67
2023/03/14 05:23:32;;;;;;;0.40;0.40;;;11.00;99.90;;;11.14;nan;98531.84;4984295;28;20633;-67
2023/03/14 05:25:59;;;;;;;0.30;0.30;;;11.00;99.90;;;11.06;nan;98534.44;4991622;28;20626;-67
2023/03/14 05:28:26;;;;;;;2.77;0.40;;;11.00;99.90;;;11.03;nan;98529.56;4991441;28;20662;-68
2023/03/14 05:30:52;;;;;;;0.40;0.40;;;10.90;99.90;;;11.03;nan;98527.72;4991073;28;21020;-66
2023/03/14 05:33:19;;;;;;;0.40;0.40;;;10.90;99.90;;;11.06;nan;98524.00;4991979;28;20684;-69
2023/03/14 05:35:46;;;;;;;0.40;0.40;;;10.90;99.90;;;11.03;nan;98525.13;4991496;28;20642;-67
2023/03/14 05:38:13;;;;;;;0.40;0.40;;;10.90;99.90;;;11.05;nan;98522.38;4991839;28;20626;-67
2023/03/14 05:40:40;;;;;;;0.50;0.30;;;10.90;99.90;;;11.05;nan;98530.19;4991979;28;20643;-66
2023/03/14 05:43:07;;;;;;;0.40;0.40;;;10.90;99.90;;;11.09;nan;98529.72;4991731;28;21199;-67
2023/03/14 05:45:35;;;;;;;2.00;0.40;;;10.90;99.90;;;11.12;nan;98531.16;4992317;28;20696;-67
2023/03/14 05:48:02;;;;;;;0.37;0.37;;;11.00;99.90;;;11.11;nan;98524.31;4991135;28;20634;-67
2023/03/14 05:50:29;;;;;;;0.30;0.30;;;11.00;99.90;;;11.12;nan;98523.31;4992030;28;20610;-67
2023/03/14 05:52:56;;;;;;;0.33;0.33;;;11.00;99.90;;;11.08;nan;98541.13;4986035;28;20630;-68
2023/03/14 05:55:23;;;;;;;0.43;0.43;;;11.00;99.90;;;11.07;nan;98531.66;4991000;28;20633;-66
2023/03/14 05:57:50;;;;;;;0.50;0.50;;;10.90;99.90;;;11.12;nan;98516.31;4975911;28;20627;-68
2023/03/14 06:00:18;;;;;;;0.60;0.40;;;11.00;99.90;;;11.09;nan;98515.84;4983943;28;20670;-67
2023/03/14 06:02:45;;;;;;;0.60;0.40;;;11.00;99.90;;;11.12;nan;98518.09;4992442;28;20773;-67
2023/03/14 06:05:12;;;;;;;0.50;0.40;;;11.00;99.90;;;11.14;nan;98526.63;4985874;28;21068;-67
2023/03/14 06:07:39;;;;;;;2.00;0.50;;;11.00;99.90;;;11.13;nan;98533.63;4984224;28;20635;-67
2023/03/14 06:10:07;;;;;;;0.83;0.83;;;11.00;99.90;;;11.16;nan;98522.03;4983828;28;20650;-66
2023/03/14 06:12:34;;;;;;;0.30;0.30;;;11.00;99.90;;;11.13;nan;98524.97;4975646;28;20639;-66
2023/03/14 06:15:01;;;;;;;0.80;0.80;;;11.00;99.90;;;11.16;nan;98520.22;4990981;28;20623;-67
2023/03/14 06:17:28;;;;;;;0.40;0.40;;;11.00;99.90;;;11.16;nan;98525.44;4991368;28;20680;-67
2023/03/14 06:19:55;;;;;;;0.70;0.67;;;11.00;99.90;;;11.25;nan;98519.25;4991033;28;20999;-69
2023/03/14 06:22:22;;;;;;;0.57;0.57;;;11.10;99.90;;;11.31;nan;98505.53;4978834;28;20639;-67
2023/03/14 06:24:49;;;;;;;0.37;0.37;;;11.10;99.90;;;11.44;nan;98520.69;4972344;28;20623;-68
2023/03/14 06:27:16;;;;;;;0.50;0.50;;;11.30;99.90;;;11.52;nan;98526.69;4985074;28;20639;-68
2023/03/14 06:29:43;;;;;;;1.03;0.40;;;11.40;99.90;;;11.56;nan;98509.69;4988449;28;20658;-69
2023/03/14 06:32:10;;;;;;;0.63;0.43;;;11.50;99.90;;;11.61;nan;98519.66;4983028;28;20643;-67
2023/03/14 06:34:38;;;;;;;0.50;0.50;;;11.50;99.90;;;11.63;nan;98515.06;4970926;28;20696;-68
2023/03/14 06:37:05;;;;;;;1.53;0.80;;;11.50;99.90;;;11.65;nan;98518.34;4976634;28;20638;-69
2023/03/14 06:39:32;;;;;;;2.00;0.53;;;11.50;99.90;;;11.68;nan;98518.03;4991337;28;20665;-67
2023/03/14 06:41:59;;;;;;;0.80;0.60;;;11.60;99.90;;;11.71;nan;98512.50;4987990;28;20630;-68
2023/03/14 06:44:26;;;;;;;0.80;0.80;;;11.60;99.90;;;11.75;nan;98519.00;4990356;28;20673;-68
2023/03/14 06:46:53;;;;;;;1.50;0.40;;;11.60;99.90;;;11.78;nan;98518.66;4990747;28;21037;-70
2023/03/14 06:49:20;;;;;;;1.07;0.63;;;11.70;99.90;;;11.77;nan;98518.81;4986479;28;20692;-71
2023/03/14 06:51:47;;;;;;;0.80;0.50;;;11.70;99.90;;;11.85;nan;98514.38;5002409;28;20697;-69
2023/03/14 06:54:14;;;;;;;1.03;0.50;;;11.70;99.90;;;11.87;nan;98512.41;4987840;28;20652;-67
2023/03/14 06:56:41;;;;;;;1.10;0.50;;;11.80;99.90;;;11.85;nan;98516.19;4990434;28;20645;-68
2023/03/14 06:59:08;;;;;;;2.63;0.57;;;11.70;99.90;;;11.88;nan;98521.91;4998878;23;20696;-64
2023/03/14 07:01:35;;;;;;;0.73;0.40;;;11.80;99.90;;;11.88;nan;98515.84;4919058;29;20616;-67
2023/03/14 07:04:02;;;;;;;1.00;0.60;;;11.80;99.90;;;11.93;nan;98510.91;4946898;28;20732;-64
2023/03/14 07:06:30;;;;;;;0.60;0.60;;;11.80;99.90;;;11.90;nan;98519.94;4932702;29;21182;-67
2023/03/14 07:08:57;;;;;;;0.60;0.60;;;11.80;99.90;;;11.93;nan;98514.34;4948524;28;20719;-65
2023/03/14 07:11:24;;;;;;;0.40;0.40;;;11.80;99.90;;;11.95;nan;98509.78;4956099;28;20627;-62
2023/03/14 07:13:51;;;;;;;0.43;0.43;;;11.90;99.90;;;11.97;nan;98507.00;4956692;28;21072;-64
2023/03/14 07:16:18;;;;;;;0.70;0.60;;;11.90;99.90;;;11.95;nan;98506.34;4936385;29;21202;-64
2023/03/14 07:18:46;;;;;;;0.80;0.80;;;11.80;99.90;;;11.95;nan;98512.38;4937568;29;21059;-65
2023/03/14 07:21:12;;;;;;;1.90;0.50;;;11.80;99.90;;;12.00;nan;98494.41;4943841;29;20628;-64
2023/03/14 07:23:40;;;;;;;0.93;0.50;;;11.90;99.90;;;12.04;nan;98503.53;4955029;28;20636;-65
2023/03/14 07:26:07;;;;;;;0.50;0.50;;;11.90;99.90;;;12.04;nan;98513.97;4952762;28;20644;-64
2023/03/14 07:28:34;;;;;;;0.47;0.47;;;12.00;99.90;;;12.04;nan;98508.75;4946104;28;20636;-66
2023/03/14 07:31:01;;;;;;;0.60;0.40;;;12.00;99.90;;;12.05;nan;98514.81;4952981;29;20633;-64
2023/03/14 07:33:28;;;;;;;1.40;0.53;;;12.00;99.90;;;12.07;nan;98518.88;4954917;28;20926;-64
2023/03/14 07:35:55;;;;;;;1.47;0.50;;;12.00;99.90;;;12.02;nan;98513.34;4945914;29;20648;-64
2023/03/14 07:38:22;;;;;;;0.47;0.40;;;11.90;99.90;;;12.10;nan;98534.19;4916884;29;20634;-64
2023/03/14 07:40:49;;;;;;;0.67;0.63;;;12.00;99.90;;;12.25;nan;98537.72;4923950;29;20672;-63
2023/03/14 07:43:16;;;;;;;0.30;0.30;;;12.20;99.90;;;12.30;nan;98527.59;4956346;28;20698;-64
2023/03/14 07:45:46;;;;;;;0.30;0.30;;;12.20;99.90;;;12.40;nan;98543.88;4950654;29;20738;-64
2023/03/14 07:48:16;;;;;;;0.40;0.30;;;12.30;99.90;;;12.37;nan;98546.81;4934534;29;20629;-65
2023/03/14 07:50:44;;;;;;;0.30;0.30;;;12.30;99.90;;;12.43;nan;98548.75;4935560;29;20641;-64
2023/03/14 07:53:10;;;;;;;0.50;0.40;;;12.30;99.90;;;12.55;nan;98550.97;4936238;29;21022;-65
2023/03/14 07:55:39;;;;;;;0.53;0.40;;;12.40;99.90;;;12.60;nan;98538.19;4935563;29;20699;-64
2023/03/14 07:58:06;;;;;;;0.40;0.40;;;12.50;99.90;;;12.61;nan;98537.19;4935695;29;20624;-64
2023/03/14 08:00:33;;;;;;;0.83;0.40;;;12.50;99.90;;;12.62;nan;98542.25;4946152;29;21009;-64
2023/03/14 08:03:00;;;;;;;1.90;0.40;;;12.50;99.90;;;12.70;nan;98538.78;4955634;28;21201;-63
2023/03/14 08:05:28;;;;;;;0.40;0.40;;;12.60;99.90;;;12.75;nan;98536.44;4947352;28;20637;-64
2023/03/14 08:07:55;;;;;;;1.00;0.50;;;12.70;99.90;;;12.78;nan;98536.91;4938530;29;20633;-65
2023/03/14 08:10:22;;;;;;;1.03;0.50;;;12.70;99.90;;;12.85;nan;98534.41;4935227;29;21266;-64
2023/03/14 08:12:54;;;;;;;0.30;0.30;;;12.70;99.90;;;12.91;nan;98541.56;4939825;29;20679;-64
2023/03/14 08:15:22;;;;;;;0.83;0.40;;;12.80;99.90;;;13.01;nan;98531.69;4947342;28;20641;-64
2023/03/14 08:17:50;;;;;;;0.80;0.60;;;12.90;99.90;;;13.19;nan;98540.88;4934718;29;21205;-64
2023/03/14 08:20:18;;;;;;;0.70;0.50;;;13.00;99.90;;;13.35;nan;98524.22;4936216;29;20676;-64
2023/03/14 08:22:45;;;;;;;1.17;0.70;;;13.20;99.90;;;13.43;nan;98526.75;4937427;29;20621;-64
2023/03/14 08:25:13;;;;;;;0.60;0.60;;;13.30;99.90;;;13.46;nan;98538.69;4954689;28;20620;-64
2023/03/14 08:27:41;;;;;;;2.20;0.50;;;13.40;99.90;;;13.49;nan;98533.88;4953283;28;20612;-64
2023/03/14 08:30:12;;;;;;;0.57;0.50;;;13.40;99.90;;;13.49;nan;98531.25;4935307;29;20661;-64
2023/03/14 08:32:39;;;;;;;0.43;0.43;;;13.40;99.90;;;13.53;nan;98537.75;4949628;29;20643;-65
2023/03/14 08:35:08;;;;;;;0.30;0.30;;;13.50;99.90;;;13.64;nan;98544.38;4930191;29;21257;-64
2023/03/14 08:37:35;;;;;;;0.53;0.50;;;13.60;99.90;;;13.78;nan;98544.38;4937208;29;20636;-63
2023/03/14 08:40:06;;;;;;;9.43;0.60;;;13.70;99.90;;;13.83;nan;98534.16;4954347;28;20671;-65
2023/03/14 08:42:33;;;;;;;0.93;0.70;;;13.80;99.90;;;13.75;nan;98555.22;4954269;28;20719;-64
2023/03/14 08:45:00;;;;;;;0.90;0.90;;;13.70;99.90;;;13.67;nan;98560.53;4954901;28;20725;-65
2023/03/14 08:47:27;;;;;;;0.60;0.50;;;13.60;99.90;;;13.62;nan;98570.75;4937183;28;21213;-65
2023/03/14 08:49:54;;;;;;;0.70;0.53;;;13.60;99.90;;;13.46;nan;98570.09;4934967;29;20665;-65
2023/03/14 08:52:22;;;;;;;0.50;0.50;;;13.40;99.90;;;13.40;nan;98562.94;4947754;29;21275;-65
2023/03/14 08:54:48;;;;;;;1.53;0.73;;;13.30;99.90;;;13.33;nan;98570.69;4954179;28;20642;-65
2023/03/14 08:57:15;;;;;;;1.80;0.50;;;13.30;99.90;;;13.29;nan;98566.78;4942260;28;20640;-65
2023/03/14 08:59:42;;;;;;;0.57;0.57;;;13.20;99.90;;;13.26;nan;98580.25;4934910;29;20677;-64
2023/03/14 09:02:11;;;;;;;0.30;0.30;;;13.10;99.90;;;13.31;nan;98577.91;4944326;29;21153;-65
2023/03/14 09:04:39;;;;;;;0.33;0.33;;;13.20;99.90;;;13.39;nan;98577.84;4940591;28;20637;-65
2023/03/14 09:07:06;;;;;;;0.80;0.40;;;13.30;99.90;;;13.52;nan;98574.63;4934073;29;20629;-67
2023/03/14 09:09:33;;;;;;;0.50;0.50;;;13.40;99.90;;;13.53;nan;98584.09;4936504;29;20633;-65
2023/03/14 09:12:00;;;;;;;0.40;0.40;;;13.40;99.90;;;13.58;nan;98572.13;4954995;28;20728;-65
2023/03/14 09:14:27;;;;;;;0.80;0.50;;;13.50;99.90;;;13.65;nan;98577.44;4953064;28;21199;-63
2023/03/14 09:16:54;;;;;;;1.30;0.47;;;13.60;99.90;;;13.75;nan;98584.06;4950212;28;20637;-65
2023/03/14 09:19:21;;;;;;;1.70;0.80;;;13.60;99.90;;;13.79;nan;98579.25;4929296;29;20673;-64
2023/03/14 09:21:48;;;;;;;0.30;0.30;;;13.70;99.90;;;13.79;nan;98569.59;4932868;29;21391;-65
2023/03/14 09:24:17;;;;;;;0.50;0.40;;;13.70;99.90;;;13.88;nan;98571.13;4948671;28;20641;-65
2023/03/14 09:26:44;;;;;;;0.30;0.30;;;13.80;99.90;;;14.10;nan;98568.59;4933781;29;20644;-65
2023/03/14 09:29:11;;;;;;;0.60;0.53;;;14.00;99.90;;;14.16;nan;98565.25;4937086;29;21227;-66
2023/03/14 09:31:37;;;;;;;0.60;0.40;;;14.10;99.90;;;14.11;nan;98567.59;4943319;28;21008;-65
2023/03/14 09:34:04;;;;;;;0.43;0.43;;;14.00;99.90;;;14.05;nan;98563.91;4935592;29;21197;-65
2023/03/14 09:36:31;;;;;;;0.40;0.40;;;14.00;99.90;;;14.08;nan;98570.56;4935077;29;21138;-65
2023/03/14 09:38:58;;;;;;;1.17;0.40;;;14.00;99.90;;;14.11;nan;98565.78;4930026;29;20660;-65
2023/03/14 09:41:31;;;;;;;0.40;0.40;;;14.00;99.90;;;14.10;nan;98581.72;4954279;28;20664;-65
2023/03/14 09:44:16;;;;;;;0.40;0.40;;;14.00;99.90;;;14.10;nan;98576.47;4952362;28;21173;-65
2023/03/14 09:46:48;;;;;;;0.47;0.47;;;14.00;99.90;;;14.03;nan;98566.69;4935864;29;20672;-66
2023/03/14 09:49:47;;;;;;;0.37;0.37;;;14.00;99.90;;;13.87;nan;98566.88;4947928;28;20666;-65
2023/03/14 09:52:39;;;;;;;0.33;0.33;;;13.80;99.90;;;13.80;nan;98576.44;4929780;29;20625;-65
2023/03/14 09:55:16;;;;;;;0.37;0.37;;;13.70;99.90;;;13.81;nan;98580.72;4928672;29;20693;-65
2023/03/14 09:57:45;;;;;;;0.30;0.30;;;13.70;99.90;;;13.82;nan;98581.53;4929125;29;20618;-65
2023/03/14 10:00:23;;;;;;;0.40;0.40;;;13.70;99.90;;;13.86;nan;98575.72;4944204;28;20684;-65
2023/03/14 10:03:02;;;;;;;0.53;0.30;;;13.80;99.90;;;13.95;nan;98579.06;4968504;28;20624;-66
2023/03/14 10:05:29;;;;;;;0.60;0.40;;;13.80;99.90;;;14.17;nan;98578.16;4936747;28;20648;-65
2023/03/14 10:07:56;;;;;;;0.40;0.40;;;14.10;99.90;;;14.27;nan;98572.66;4933091;29;20629;-65
2023/03/14 10:10:26;;;;;;;0.33;0.30;;;14.20;99.90;;;14.35;nan;98583.06;4933314;29;20665;-64
2023/03/14 10:13:24;;;;;;;0.40;0.40;;;14.30;99.90;;;14.17;nan;98578.16;4934293;29;20625;-65
2023/03/14 10:15:59;;;;;;;0.40;0.40;;;14.20;99.90;;;14.08;nan;98578.44;4945197;29;21193;-65
2023/03/14 10:18:30;;;;;;;0.43;0.43;;;14.00;99.90;;;14.05;nan;98574.38;4945664;28;20647;-66
2023/03/14 10:21:27;;;;;;;0.30;0.30;;;14.00;99.90;;;14.00;nan;98577.56;4932107;29;20684;-65
2023/03/14 10:23:54;;;;;;;0.33;0.33;;;13.90;99.90;;;13.89;nan;98578.00;4933546;29;20742;-66
2023/03/14 10:26:27;;;;;;;0.30;0.30;;;13.80;99.90;;;13.82;nan;98582.31;4934192;29;20633;-66
2023/03/14 10:29:03;;;;;;;1.07;0.40;;;13.70;99.90;;;13.66;nan;98582.50;4941794;28;20808;-66
2023/03/14 10:31:54;;;;;;;0.40;0.40;;;13.60;99.90;;;13.45;nan;98585.00;4952513;28;20676;-64
2023/03/14 10:34:25;;;;;;;0.90;0.40;;;13.40;99.90;;;13.33;nan;98572.50;4940983;28;20645;-66
2023/03/14 10:36:55;;;;;;;0.90;0.40;;;13.30;99.90;;;13.26;nan;98572.41;4934756;29;20644;-67
2023/03/14 10:39:38;;;;;;;0.40;0.40;;;13.20;99.90;;;13.21;nan;98574.72;4933665;29;20686;-65
2023/03/14 10:42:29;;;;;;;0.30;0.30;;;13.10;99.90;;;13.24;nan;98569.94;4934132;29;21053;-67